createdAt,value
2023-04-19T00:02:13.504Z,14.50
2023-04-19T00:04:40.576Z,14.50
2023-04-19T00:07:07.719Z,14.50
2023-04-19T00:09:34.680Z,14.50
2023-04-19T00:12:02.254Z,14.50
2023-04-19T00:14:29.427Z,14.60
2023-04-19T00:16:56.439Z,14.60
2023-04-19T00:19:23.494Z,14.60
2023-04-19T00:21:50.521Z,14.60
2023-04-19T00:24:18.187Z,14.60
2023-04-19T00:26:45.922Z,14.60
2023-04-19T00:29:12.840Z,14.60
2023-04-19T00:31:40.110Z,14.60
2023-04-19T00:34:07.322Z,14.60
2023-04-19T00:36:34.356Z,14.60
2023-04-19T00:39:01.303Z,14.60
2023-04-19T00:41:28.285Z,14.60
2023-04-19T00:43:55.439Z,14.60
2023-04-19T00:46:23.504Z,14.60
2023-04-19T00:48:51.133Z,14.60
2023-04-19T00:51:18.653Z,14.60
2023-04-19T00:53:46.423Z,14.60
2023-04-19T00:56:14.913Z,14.60
2023-04-19T00:58:41.864Z,14.60
2023-04-19T01:01:09.697Z,14.60
2023-04-19T01:03:37.125Z,14.60
2023-04-19T01:06:04.441Z,14.60
2023-04-19T01:08:31.436Z,14.60
2023-04-19T01:10:58.396Z,14.60
2023-04-19T01:13:25.409Z,14.50
2023-04-19T01:15:52.455Z,14.60
2023-04-19T01:18:21.873Z,14.60
2023-04-19T01:20:48.790Z,14.60
2023-04-19T01:23:15.811Z,14.60
2023-04-19T01:25:43.030Z,14.60
2023-04-19T01:28:09.996Z,14.60
2023-04-19T01:30:37.226Z,14.60
2023-04-19T01:33:04.169Z,14.60
2023-04-19T01:35:31.146Z,14.60
2023-04-19T01:37:58.179Z,14.60
2023-04-19T01:40:26.219Z,14.50
2023-04-19T01:42:53.451Z,14.50
2023-04-19T01:45:20.595Z,14.50
2023-04-19T01:47:51.775Z,14.50
2023-04-19T01:50:18.894Z,14.40
2023-04-19T01:52:45.821Z,14.40
2023-04-19T01:55:12.824Z,14.40
2023-04-19T01:57:39.747Z,14.40
2023-04-19T02:00:08.868Z,14.40
2023-04-19T02:02:42.149Z,14.40
2023-04-19T02:05:10.662Z,14.40
2023-04-19T02:07:37.865Z,14.40
2023-04-19T02:10:06.325Z,14.40
2023-04-19T02:12:34.674Z,14.40
2023-04-19T02:15:03.356Z,14.40
2023-04-19T02:17:30.838Z,14.40
2023-04-19T02:19:59.675Z,14.40
2023-04-19T02:22:27.358Z,14.40
2023-04-19T02:24:54.353Z,14.40
2023-04-19T02:27:27.434Z,14.40
2023-04-19T02:29:54.780Z,14.40
2023-04-19T02:32:21.956Z,14.40
2023-04-19T02:34:48.976Z,14.40
2023-04-19T02:37:15.888Z,14.40
2023-04-19T02:39:42.881Z,14.40
2023-04-19T02:42:09.808Z,14.40
2023-04-19T02:44:36.760Z,14.40
2023-04-19T02:47:03.776Z,14.40
2023-04-19T02:49:36.979Z,14.30
2023-04-19T02:52:04.549Z,14.30
2023-04-19T02:54:33.752Z,14.30
2023-04-19T02:57:01.189Z,14.30
2023-04-19T02:59:28.283Z,14.20
2023-04-19T03:01:58.150Z,14.20
2023-04-19T03:04:25.856Z,14.20
2023-04-19T03:06:53.198Z,14.20
2023-04-19T03:09:20.798Z,14.20
2023-04-19T03:11:47.775Z,14.10
2023-04-19T03:14:16.425Z,14.10
2023-04-19T03:16:43.617Z,14.10
2023-04-19T03:19:10.793Z,14.00
2023-04-19T03:21:45.128Z,14.00
2023-04-19T03:24:13.257Z,14.00
2023-04-19T03:26:45.280Z,14.00
2023-04-19T03:29:14.441Z,13.90
2023-04-19T03:32:01.632Z,13.90
2023-04-19T03:34:30.105Z,13.90
2023-04-19T03:36:57.051Z,13.80
2023-04-19T03:39:24.995Z,13.90
2023-04-19T03:41:57.727Z,13.80
2023-04-19T03:44:38.090Z,13.80
2023-04-19T03:47:07.576Z,13.80
2023-04-19T03:49:41.368Z,13.80
2023-04-19T03:52:08.377Z,13.80
2023-04-19T03:54:35.362Z,13.70
2023-04-19T03:57:04.394Z,13.70
2023-04-19T03:59:31.893Z,13.70
2023-04-19T04:01:59.879Z,13.70
2023-04-19T04:04:27.077Z,13.60
2023-04-19T04:06:55.864Z,13.60
2023-04-19T04:09:22.915Z,13.60
2023-04-19T04:11:50.483Z,13.60
2023-04-19T04:14:17.552Z,13.60
2023-04-19T04:16:46.476Z,13.50
2023-04-19T04:19:17.153Z,13.50
2023-04-19T04:21:45.116Z,13.40
2023-04-19T04:24:13.417Z,13.40
2023-04-19T04:26:52.068Z,13.40
2023-04-19T04:29:29.104Z,13.30
2023-04-19T04:31:59.043Z,13.30
2023-04-19T04:34:33.084Z,13.30
2023-04-19T04:37:08.949Z,13.30
2023-04-19T04:39:39.232Z,13.30
2023-04-19T04:42:10.473Z,13.30
2023-04-19T04:44:38.975Z,13.30
2023-04-19T04:47:08.517Z,13.40
2023-04-19T04:49:42.034Z,13.40
2023-04-19T04:52:09.534Z,13.30
2023-04-19T04:54:44.816Z,13.40
2023-04-19T04:57:21.962Z,13.40
2023-04-19T04:59:48.987Z,13.40
2023-04-19T05:02:18.749Z,13.40
2023-04-19T05:04:45.873Z,13.50
2023-04-19T05:07:13.225Z,13.60
2023-04-19T05:09:40.565Z,13.60
2023-04-19T05:12:07.715Z,13.70
2023-04-19T05:14:35.512Z,13.80
2023-04-19T05:17:04.730Z,14.20
2023-04-19T05:19:32.948Z,14.80
2023-04-19T05:22:05.770Z,15.30
2023-04-19T05:24:32.919Z,15.80
2023-04-19T05:27:01.824Z,16.10
2023-04-19T05:29:28.781Z,16.60
2023-04-19T05:31:57.952Z,17.10
2023-04-19T05:34:31.488Z,17.10
2023-04-19T05:37:00.513Z,17.30
2023-04-19T05:39:27.512Z,17.80
2023-04-19T05:41:54.521Z,18.20
2023-04-19T05:44:21.637Z,18.30
2023-04-19T05:46:48.773Z,18.30
2023-04-19T05:49:24.955Z,18.60
2023-04-19T05:52:03.010Z,19.30
2023-04-19T05:54:38.762Z,20.00
2023-04-19T05:57:05.907Z,20.10
2023-04-19T05:59:33.141Z,19.90
2023-04-19T06:02:01.353Z,19.50
2023-04-19T06:04:28.648Z,19.20
2023-04-19T06:06:55.767Z,18.70
2023-04-19T06:09:22.710Z,18.40
2023-04-19T06:11:51.262Z,18.20
2023-04-19T06:14:18.968Z,17.90
2023-04-19T06:16:46.715Z,17.90
2023-04-19T06:19:13.715Z,17.90
2023-04-19T06:21:40.633Z,18.00
2023-04-19T06:24:07.980Z,18.10
2023-04-19T06:26:35.141Z,18.40
2023-04-19T06:29:02.061Z,18.50
2023-04-19T06:31:29.135Z,18.70
2023-04-19T06:33:56.175Z,18.70
2023-04-19T06:36:23.137Z,18.80
2023-04-19T06:38:50.393Z,19.10
2023-04-19T06:41:17.848Z,19.40
2023-04-19T06:43:44.985Z,19.80
2023-04-19T06:46:14.083Z,20.30
2023-04-19T06:48:41.862Z,20.70
2023-04-19T06:51:09.137Z,21.00
2023-04-19T06:53:36.479Z,21.60
2023-04-19T06:56:06.793Z,21.90
2023-04-19T06:58:35.163Z,22.00
2023-04-19T07:01:06.357Z,21.80
2023-04-19T07:03:33.929Z,21.60
2023-04-19T07:06:01.901Z,21.50
2023-04-19T07:08:42.420Z,21.40
2023-04-19T07:11:15.440Z,21.40
2023-04-19T07:13:42.242Z,21.20
2023-04-19T07:16:09.143Z,21.10
2023-04-19T07:18:36.001Z,21.20
2023-04-19T07:21:03.116Z,21.20
2023-04-19T07:23:30.931Z,21.10
2023-04-19T07:25:57.807Z,20.90
2023-04-19T07:28:24.635Z,20.70
2023-04-19T07:30:51.470Z,20.50
2023-04-19T07:33:18.616Z,20.40
2023-04-19T07:35:45.547Z,20.40
2023-04-19T07:38:12.645Z,20.40
2023-04-19T07:40:39.554Z,20.50
2023-04-19T07:43:06.939Z,20.70
2023-04-19T07:45:33.785Z,20.80
2023-04-19T07:48:00.695Z,21.30
2023-04-19T07:50:27.909Z,21.50
2023-04-19T07:52:54.907Z,21.90
2023-04-19T07:55:21.783Z,22.20
2023-04-19T07:57:49.214Z,22.60
2023-04-19T08:00:16.902Z,22.40
2023-04-19T08:02:44.981Z,22.20
2023-04-19T08:05:12.945Z,22.00
2023-04-19T08:07:40.178Z,22.00
2023-04-19T08:10:07.632Z,21.90
2023-04-19T08:12:40.586Z,21.80
2023-04-19T08:15:29.705Z,21.70
2023-04-19T08:17:58.953Z,21.80
2023-04-19T08:20:26.821Z,21.80
2023-04-19T08:22:54.298Z,21.70
2023-04-19T08:25:21.418Z,21.70
2023-04-19T08:27:48.273Z,21.70
2023-04-19T08:30:15.201Z,21.80
2023-04-19T08:32:42.052Z,22.10
2023-04-19T08:35:09.184Z,22.30
2023-04-19T08:37:36.169Z,22.60
2023-04-19T08:40:03.925Z,23.10
2023-04-19T08:42:36.405Z,23.50
2023-04-19T08:47:44.862Z,23.90
2023-04-19T08:50:31.161Z,24.50
2023-04-19T08:53:16.380Z,25.30
2023-04-19T08:56:07.899Z,25.50
2023-04-19T08:58:54.946Z,25.30
2023-04-19T09:04:02.388Z,25.70
2023-04-19T09:06:37.453Z,26.80
2023-04-19T09:11:49.544Z,28.60
2023-04-19T09:14:17.396Z,28.80
2023-04-19T09:16:44.726Z,28.30
2023-04-19T09:19:24.218Z,27.70
2023-04-19T09:21:54.181Z,27.20
2023-04-19T09:27:12.228Z,28.10
2023-04-19T09:29:39.631Z,28.80
2023-04-19T09:32:06.545Z,29.30
2023-04-19T09:34:33.479Z,29.60
2023-04-19T09:37:27.911Z,30.00
2023-04-19T09:39:59.737Z,30.50
2023-04-19T09:43:05.341Z,30.80
2023-04-19T09:45:42.256Z,30.60
2023-04-19T09:48:09.793Z,30.00
2023-04-19T09:50:46.249Z,29.80
2023-04-19T09:53:22.073Z,29.90
2023-04-19T09:56:00.404Z,30.10
2023-04-19T09:58:34.390Z,29.80
2023-04-19T10:01:15.773Z,28.70
2023-04-19T10:03:48.951Z,28.30
2023-04-19T10:06:37.370Z,27.40
2023-04-19T10:09:04.571Z,27.50
2023-04-19T10:11:42.926Z,28.20
2023-04-19T10:14:11.704Z,28.70
2023-04-19T10:16:39.119Z,29.10
2023-04-19T10:19:09.809Z,29.30
2023-04-19T10:21:37.592Z,29.50
2023-04-19T10:24:05.455Z,29.40
2023-04-19T10:26:52.294Z,28.90
2023-04-19T10:29:39.108Z,27.90
2023-04-19T10:32:06.234Z,26.80
2023-04-19T10:34:42.551Z,26.60
2023-04-19T10:37:13.867Z,27.40
2023-04-19T10:39:44.850Z,28.30
2023-04-19T10:42:13.091Z,29.00
2023-04-19T10:44:39.905Z,29.80
2023-04-19T10:47:06.706Z,30.10
2023-04-19T10:49:44.365Z,30.50
2023-04-19T10:52:31.418Z,30.10
2023-04-19T10:54:58.332Z,29.90
2023-04-19T10:57:25.421Z,30.10
2023-04-19T11:00:11.189Z,30.50
2023-04-19T11:02:38.125Z,30.20
2023-04-19T11:05:05.564Z,29.30
2023-04-19T11:07:37.429Z,28.60
2023-04-19T11:10:04.850Z,27.20
2023-04-19T11:12:31.644Z,25.70
2023-04-19T11:14:59.962Z,24.80
2023-04-19T11:17:28.535Z,24.80
2023-04-19T11:19:58.245Z,26.10
2023-04-19T11:22:30.083Z,27.00
2023-04-19T11:24:56.895Z,27.20
2023-04-19T11:27:23.713Z,27.00
2023-04-19T11:29:50.577Z,26.40
2023-04-19T11:32:20.915Z,25.90
2023-04-19T11:34:47.870Z,25.20
2023-04-19T11:37:14.714Z,25.50
2023-04-19T11:39:45.541Z,26.50
2023-04-19T11:42:21.875Z,27.60
2023-04-19T11:44:51.595Z,28.70
2023-04-19T11:47:19.113Z,27.90
2023-04-19T11:49:46.560Z,26.90
2023-04-19T11:52:20.872Z,25.90
2023-04-19T11:54:47.930Z,25.20
2023-04-19T11:57:16.223Z,24.70
2023-04-19T12:00:02.174Z,24.40
2023-04-19T12:02:40.188Z,23.90
2023-04-19T12:05:11.664Z,23.70
2023-04-19T12:07:57.177Z,24.20
2023-04-19T12:10:24.023Z,24.80
2023-04-19T12:12:51.066Z,25.30
2023-04-19T12:15:18.006Z,26.20
2023-04-19T12:18:01.949Z,26.90
2023-04-19T12:20:34.143Z,27.70
2023-04-19T12:23:01.087Z,28.00
2023-04-19T12:25:28.633Z,27.60
2023-04-19T12:27:55.792Z,26.70
2023-04-19T12:30:22.728Z,25.80
2023-04-19T12:32:51.474Z,25.10
2023-04-19T12:35:18.467Z,24.60
2023-04-19T12:37:45.277Z,24.20
2023-04-19T12:40:12.662Z,24.10
2023-04-19T12:42:39.454Z,24.10
2023-04-19T12:45:06.878Z,24.20
2023-04-19T12:47:33.691Z,24.50
2023-04-19T12:50:01.732Z,24.50
2023-04-19T12:52:28.671Z,24.50
2023-04-19T12:54:55.464Z,24.50
2023-04-19T12:57:22.357Z,24.40
2023-04-19T12:59:49.144Z,24.50
2023-04-19T13:02:16.232Z,24.30
2023-04-19T13:04:43.310Z,24.00
2023-04-19T13:07:10.268Z,23.80
2023-04-19T13:09:37.176Z,23.60
2023-04-19T13:12:04.986Z,23.40
2023-04-19T13:14:32.237Z,23.20
2023-04-19T13:16:59.073Z,22.90
2023-04-19T13:19:26.063Z,22.80
2023-04-19T13:21:53.119Z,22.80
2023-04-19T13:24:20.039Z,22.60
2023-04-19T13:26:46.956Z,22.60
2023-04-19T13:29:13.863Z,22.50
2023-04-19T13:31:43.577Z,22.40
2023-04-19T13:34:10.744Z,22.30
2023-04-19T13:36:37.839Z,22.30
2023-04-19T13:39:05.890Z,22.40
2023-04-19T13:41:34.558Z,22.60
2023-04-19T13:44:01.476Z,23.00
2023-04-19T13:46:28.309Z,23.10
2023-04-19T13:48:55.944Z,23.10
2023-04-19T13:51:22.760Z,23.00
2023-04-19T13:53:49.570Z,22.70
2023-04-19T13:56:16.396Z,22.40
2023-04-19T13:58:43.180Z,22.20
2023-04-19T14:01:10.240Z,21.90
2023-04-19T14:03:37.267Z,21.70
2023-04-19T14:06:04.399Z,21.50
2023-04-19T14:08:31.230Z,21.40
2023-04-19T14:10:58.104Z,21.50
2023-04-19T14:13:24.989Z,21.50
2023-04-19T14:15:51.876Z,21.70
2023-04-19T14:18:19.594Z,21.80
2023-04-19T14:20:46.395Z,22.10
2023-04-19T14:23:13.238Z,22.50
2023-04-19T14:25:40.093Z,22.90
2023-04-19T14:28:06.906Z,23.20
2023-04-19T14:30:33.785Z,23.10
2023-04-19T14:33:00.755Z,23.20
2023-04-19T14:35:27.660Z,23.30
2023-04-19T14:37:54.539Z,23.40
2023-04-19T14:40:21.482Z,23.50
2023-04-19T14:42:48.406Z,23.50
2023-04-19T14:45:15.326Z,23.70
2023-04-19T14:47:42.323Z,23.90
2023-04-19T14:50:09.650Z,24.00
2023-04-19T14:52:36.474Z,24.00
2023-04-19T14:55:03.487Z,24.20
2023-04-19T14:57:30.338Z,24.20
2023-04-19T14:59:58.331Z,24.00
2023-04-19T15:02:25.557Z,23.60
2023-04-19T15:04:52.914Z,23.30
2023-04-19T15:07:20.042Z,22.90
2023-04-19T15:09:46.857Z,22.70
2023-04-19T15:12:13.751Z,22.60
2023-04-19T15:14:40.594Z,22.60
2023-04-19T15:17:07.777Z,22.50
2023-04-19T15:19:34.698Z,22.40
2023-04-19T15:22:03.907Z,22.20
2023-04-19T15:24:33.644Z,22.00
2023-04-19T15:27:01.606Z,21.90
2023-04-19T15:29:28.480Z,21.70
2023-04-19T15:31:55.414Z,21.50
2023-04-19T15:34:22.225Z,21.40
2023-04-19T15:36:49.039Z,21.50
2023-04-19T15:39:16.037Z,21.50
2023-04-19T15:41:43.018Z,21.40
2023-04-19T15:44:09.832Z,21.30
2023-04-19T15:46:36.731Z,21.20
2023-04-19T15:49:03.899Z,21.10
2023-04-19T15:51:31.636Z,20.90
2023-04-19T15:53:58.530Z,20.70
2023-04-19T15:56:25.392Z,20.60
2023-04-19T15:58:52.305Z,20.40
2023-04-19T16:01:19.478Z,20.20
2023-04-19T16:03:46.547Z,20.10
2023-04-19T16:06:13.863Z,19.90
2023-04-19T16:08:40.800Z,19.70
2023-04-19T16:11:07.731Z,19.50
2023-04-19T16:13:34.629Z,19.40
2023-04-19T16:16:01.759Z,19.30
2023-04-19T16:18:28.736Z,19.20
2023-04-19T16:20:55.824Z,19.10
2023-04-19T16:23:23.720Z,19.00
2023-04-19T16:25:50.594Z,19.00
2023-04-19T16:28:18.481Z,18.90
2023-04-19T16:30:48.205Z,18.80
2023-04-19T16:33:15.876Z,18.80
2023-04-19T16:35:42.998Z,18.70
2023-04-19T16:38:09.931Z,18.60
2023-04-19T16:40:36.792Z,18.50
2023-04-19T16:43:04.850Z,18.40
2023-04-19T16:45:31.917Z,18.30
2023-04-19T16:47:58.823Z,18.20
2023-04-19T16:50:25.771Z,18.10
2023-04-19T16:52:53.505Z,17.90
2023-04-19T16:55:21.682Z,17.80
2023-04-19T16:57:49.448Z,17.70
2023-04-19T17:00:16.849Z,17.70
2023-04-19T17:02:43.900Z,17.60
2023-04-19T17:05:12.544Z,17.50
2023-04-19T17:07:39.782Z,17.40
2023-04-19T17:10:07.321Z,17.30
2023-04-19T17:12:34.350Z,17.20
2023-04-19T17:15:02.128Z,17.20
2023-04-19T17:17:29.093Z,17.10
2023-04-19T17:19:56.920Z,17.00
2023-04-19T17:22:24.025Z,17.00
2023-04-19T17:24:51.006Z,16.90
2023-04-19T17:27:17.918Z,16.90
2023-04-19T17:29:49.428Z,16.80
2023-04-19T17:32:17.215Z,16.80
2023-04-19T17:34:44.150Z,16.60
2023-04-19T17:37:11.055Z,16.50
2023-04-19T17:39:37.992Z,16.50
2023-04-19T17:42:04.941Z,16.50
2023-04-19T17:44:31.839Z,16.40
2023-04-19T17:46:58.795Z,16.40
2023-04-19T17:49:27.085Z,16.30
2023-04-19T17:51:56.231Z,16.30
2023-04-19T17:54:23.316Z,16.30
2023-04-19T17:56:52.499Z,16.20
2023-04-19T17:59:19.596Z,16.20
2023-04-19T18:01:46.687Z,16.20
2023-04-19T18:04:17.971Z,16.20
2023-04-19T18:06:46.389Z,16.20
2023-04-19T18:09:14.788Z,16.20
2023-04-19T18:11:42.053Z,16.20
2023-04-19T18:14:09.155Z,16.20
2023-04-19T18:16:36.271Z,16.10
2023-04-19T18:19:03.324Z,16.20
2023-04-19T18:21:30.406Z,16.10
2023-04-19T18:23:57.316Z,16.10
2023-04-19T18:26:24.414Z,16.00
2023-04-19T18:28:51.388Z,15.90
2023-04-19T18:31:18.361Z,15.90
2023-04-19T18:33:45.334Z,16.00
2023-04-19T18:36:12.407Z,16.00
2023-04-19T18:38:39.400Z,15.90
2023-04-19T18:41:06.529Z,15.90
2023-04-19T18:43:33.678Z,15.90
2023-04-19T18:46:01.359Z,15.90
2023-04-19T18:48:29.884Z,15.80
2023-04-19T18:50:57.438Z,15.70
2023-04-19T18:53:28.592Z,15.70
2023-04-19T18:55:59.249Z,15.70
2023-04-19T18:58:27.234Z,15.70
2023-04-19T19:00:54.946Z,15.60
2023-04-19T19:05:58.490Z,15.50
2023-04-19T19:08:26.157Z,15.60
2023-04-19T19:13:23.617Z,15.50
2023-04-19T19:15:51.019Z,15.50
2023-04-19T19:18:18.548Z,15.50
2023-04-19T19:20:46.328Z,15.40
2023-04-19T19:23:13.714Z,15.40
2023-04-19T19:25:42.330Z,15.40
2023-04-19T19:28:11.321Z,15.40
2023-04-19T19:30:43.163Z,15.30
2023-04-19T19:33:11.304Z,15.30
2023-04-19T19:35:39.952Z,15.30
2023-04-19T19:38:07.129Z,15.30
2023-04-19T19:40:34.744Z,15.20
2023-04-19T19:43:02.108Z,15.20
2023-04-19T19:45:30.469Z,15.10
2023-04-19T19:47:59.241Z,15.10
2023-04-19T19:52:58.625Z,15.00
2023-04-19T19:55:25.912Z,15.00
2023-04-19T20:00:42.752Z,14.90
2023-04-19T20:03:11.512Z,14.80
2023-04-19T20:05:39.756Z,14.80
2023-04-19T20:08:12.675Z,14.70
2023-04-19T20:10:42.405Z,14.70
2023-04-19T20:13:09.764Z,14.70
2023-04-19T20:15:37.826Z,14.60
2023-04-19T20:18:05.512Z,14.60
2023-04-19T20:20:33.118Z,14.60
2023-04-19T20:23:00.405Z,14.60
2023-04-19T20:25:27.483Z,14.60
2023-04-19T20:27:55.083Z,14.50
2023-04-19T20:30:22.066Z,14.50
2023-04-19T20:32:50.426Z,14.50
2023-04-19T20:35:18.092Z,14.40
2023-04-19T20:37:46.902Z,14.40
2023-04-19T20:40:16.084Z,14.40
2023-04-19T20:42:44.211Z,14.40
2023-04-19T20:45:11.519Z,14.40
2023-04-19T20:47:38.895Z,14.40
2023-04-19T20:50:07.164Z,14.50
2023-04-19T20:52:34.774Z,14.50
2023-04-19T20:55:01.737Z,14.40
2023-04-19T20:57:28.723Z,14.30
2023-04-19T20:59:55.646Z,14.40
2023-04-19T21:02:22.865Z,14.30
2023-04-19T21:04:49.946Z,14.30
2023-04-19T21:07:17.081Z,14.30
2023-04-19T21:09:44.011Z,14.40
2023-04-19T21:12:10.958Z,14.40
2023-04-19T21:14:37.974Z,14.40
2023-04-19T21:17:04.962Z,14.40
2023-04-19T21:19:32.033Z,14.40
2023-04-19T21:21:59.330Z,14.40
2023-04-19T21:24:26.370Z,14.40
2023-04-19T21:26:53.339Z,14.40
2023-04-19T21:29:21.072Z,14.40
2023-04-19T21:31:48.113Z,14.40
2023-04-19T21:34:15.409Z,14.40
2023-04-19T21:36:42.468Z,14.30
2023-04-19T21:39:10.344Z,14.30
2023-04-19T21:41:38.262Z,14.30
2023-04-19T21:44:05.353Z,14.30
2023-04-19T21:46:33.403Z,14.30
2023-04-19T21:49:00.428Z,14.30
2023-04-19T21:51:27.612Z,14.20
2023-04-19T21:53:54.585Z,14.20
2023-04-19T21:56:21.506Z,14.30
2023-04-19T21:58:48.542Z,14.30
2023-04-19T22:01:15.546Z,14.30
2023-04-19T22:03:42.770Z,14.30
2023-04-19T22:06:10.260Z,14.30
2023-04-19T22:08:37.235Z,14.30
2023-04-19T22:11:04.415Z,14.20
2023-04-19T22:13:33.406Z,14.20
2023-04-19T22:18:29.188Z,14.20
2023-04-19T22:20:56.136Z,14.20
2023-04-19T22:23:23.157Z,14.20
2023-04-19T22:25:50.086Z,14.20
2023-04-19T22:28:17.054Z,14.10
2023-04-19T22:30:44.024Z,14.10
2023-04-19T22:33:11.714Z,14.10
2023-04-19T22:35:38.664Z,14.10
2023-04-19T22:38:05.614Z,14.00
2023-04-19T22:40:32.560Z,14.10
2023-04-19T22:42:59.465Z,14.00
2023-04-19T22:45:26.478Z,14.10
2023-04-19T22:47:53.924Z,14.00
2023-04-19T22:50:23.866Z,14.00
2023-04-19T22:52:51.326Z,14.00
2023-04-19T22:55:18.256Z,14.00
2023-04-19T22:57:45.170Z,14.00
2023-04-19T23:00:12.644Z,14.00
2023-04-19T23:02:39.734Z,14.00
2023-04-19T23:05:07.130Z,14.00
2023-04-19T23:07:34.446Z,13.90
2023-04-19T23:10:03.105Z,14.00
2023-04-19T23:12:31.303Z,13.90
2023-04-19T23:14:58.409Z,13.90
2023-04-19T23:17:25.677Z,13.90
2023-04-19T23:19:53.066Z,13.80
2023-04-19T23:22:20.101Z,13.80
2023-04-19T23:24:47.018Z,13.80
2023-04-19T23:27:14.181Z,13.70
2023-04-19T23:29:41.131Z,13.70
2023-04-19T23:32:08.091Z,13.70
2023-04-19T23:34:35.150Z,13.70
2023-04-19T23:37:02.170Z,13.70
2023-04-19T23:39:29.118Z,13.70
2023-04-19T23:41:56.150Z,13.70
2023-04-19T23:44:23.086Z,13.80
2023-04-19T23:46:50.069Z,13.70
2023-04-19T23:49:17.200Z,13.80
2023-04-19T23:51:44.662Z,13.80
2023-04-19T23:54:11.829Z,13.80
2023-04-19T23:56:38.733Z,13.80
2023-04-19T23:59:05.750Z,13.80
